sensor_id;sensor_type;location;lat;lon;timestamp;pressure;altitude;pressure_sealevel;temperature;humidity
64460;BME280;50828;53.756;21.140;2022-07-29T00:01:29;100530.05;;;11.55;60.78
64460;BME280;50828;53.756;21.140;2022-07-29T00:06:38;100533.00;;;11.48;60.73
64460;BME280;50828;53.756;21.140;2022-07-29T00:11:46;100534.52;;;11.40;60.91
64460;BME280;50828;53.756;21.140;2022-07-29T00:16:55;100535.88;;;11.32;60.93
64460;BME280;50828;53.756;21.140;2022-07-29T00:22:03;100532.63;;;11.25;61.23
64460;BME280;50828;53.756;21.140;2022-07-29T00:27:11;100526.01;;;11.17;61.42
64460;BME280;50828;53.756;21.140;2022-07-29T00:32:19;100525.55;;;11.10;61.18
64460;BME280;50828;53.756;21.140;2022-07-29T00:37:27;100523.50;;;11.03;61.40
64460;BME280;50828;53.756;21.140;2022-07-29T00:42:43;100528.20;;;10.95;61.21
64460;BME280;50828;53.756;21.140;2022-07-29T00:47:51;100535.34;;;10.87;61.46
64460;BME280;50828;53.756;21.140;2022-07-29T00:52:59;100537.73;;;10.80;61.14
64460;BME280;50828;53.756;21.140;2022-07-29T00:58:07;100536.02;;;10.72;61.84
64460;BME280;50828;53.756;21.140;2022-07-29T01:03:16;100533.45;;;10.65;61.95
64460;BME280;50828;53.756;21.140;2022-07-29T01:08:24;100534.38;;;10.59;62.26
64460;BME280;50828;53.756;21.140;2022-07-29T01:13:34;100532.44;;;10.54;62.13
64460;BME280;50828;53.756;21.140;2022-07-29T01:18:46;100533.33;;;10.47;62.50
64460;BME280;50828;53.756;21.140;2022-07-29T01:24:14;100530.00;;;10.42;62.41
64460;BME280;50828;53.756;21.140;2022-07-29T01:29:28;100531.62;;;10.35;62.39
64460;BME280;50828;53.756;21.140;2022-07-29T01:34:48;100536.14;;;10.30;62.69
64460;BME280;50828;53.756;21.140;2022-07-29T01:40:00;100538.09;;;10.25;62.85
64460;BME280;50828;53.756;21.140;2022-07-29T01:45:14;100541.57;;;10.20;62.51
64460;BME280;50828;53.756;21.140;2022-07-29T01:50:26;100535.23;;;10.15;62.91
64460;BME280;50828;53.756;21.140;2022-07-29T01:55:38;100532.91;;;10.10;63.18
64460;BME280;50828;53.756;21.140;2022-07-29T02:00:46;100529.88;;;10.06;63.18
64460;BME280;50828;53.756;21.140;2022-07-29T02:05:58;100535.81;;;10.02;63.08
64460;BME280;50828;53.756;21.140;2022-07-29T02:11:08;100535.61;;;9.97;63.26
64460;BME280;50828;53.756;21.140;2022-07-29T02:16:18;100535.91;;;9.92;63.30
64460;BME280;50828;53.756;21.140;2022-07-29T02:21:31;100536.77;;;9.88;63.04
64460;BME280;50828;53.756;21.140;2022-07-29T02:26:41;100541.13;;;9.83;63.18
64460;BME280;50828;53.756;21.140;2022-07-29T02:31:52;100544.23;;;9.80;62.97
64460;BME280;50828;53.756;21.140;2022-07-29T02:37:01;100542.96;;;9.75;63.12
64460;BME280;50828;53.756;21.140;2022-07-29T02:42:13;100543.82;;;9.69;63.07
64460;BME280;50828;53.756;21.140;2022-07-29T02:47:27;100542.25;;;9.63;63.19
64460;BME280;50828;53.756;21.140;2022-07-29T02:52:52;100543.84;;;9.57;63.21
64460;BME280;50828;53.756;21.140;2022-07-29T02:58:05;100545.95;;;9.51;63.06
64460;BME280;50828;53.756;21.140;2022-07-29T03:03:18;100548.41;;;9.45;62.98
64460;BME280;50828;53.756;21.140;2022-07-29T03:08:27;100553.16;;;9.39;63.29
64460;BME280;50828;53.756;21.140;2022-07-29T03:13:36;100547.88;;;9.32;63.48
64460;BME280;50828;53.756;21.140;2022-07-29T03:18:45;100550.98;;;9.29;63.29
64460;BME280;50828;53.756;21.140;2022-07-29T03:23:55;100550.70;;;9.26;63.68
64460;BME280;50828;53.756;21.140;2022-07-29T03:29:03;100555.16;;;9.24;63.51
64460;BME280;50828;53.756;21.140;2022-07-29T03:34:12;100558.84;;;9.24;64.10
64460;BME280;50828;53.756;21.140;2022-07-29T03:39:23;100561.80;;;9.25;64.29
64460;BME280;50828;53.756;21.140;2022-07-29T03:44:33;100558.73;;;9.28;64.42
64460;BME280;50828;53.756;21.140;2022-07-29T03:49:44;100561.73;;;9.33;64.50
64460;BME280;50828;53.756;21.140;2022-07-29T03:54:54;100563.02;;;9.45;65.05
64460;BME280;50828;53.756;21.140;2022-07-29T04:00:03;100560.45;;;9.60;65.61
64460;BME280;50828;53.756;21.140;2022-07-29T04:05:16;100554.18;;;9.82;65.61
64460;BME280;50828;53.756;21.140;2022-07-29T04:10:24;100551.80;;;10.08;66.10
64460;BME280;50828;53.756;21.140;2022-07-29T04:15:38;100544.30;;;10.34;66.55
64460;BME280;50828;53.756;21.140;2022-07-29T04:20:46;100543.89;;;10.58;67.01
64460;BME280;50828;53.756;21.140;2022-07-29T04:25:55;100551.90;;;10.77;66.79
64460;BME280;50828;53.756;21.140;2022-07-29T04:31:03;100553.51;;;10.92;66.91
64460;BME280;50828;53.756;21.140;2022-07-29T04:36:11;100541.16;;;10.97;67.03
64460;BME280;50828;53.756;21.140;2022-07-29T04:41:35;100557.99;;;11.25;67.30
64460;BME280;50828;53.756;21.140;2022-07-29T04:46:43;100555.08;;;11.51;67.67
64460;BME280;50828;53.756;21.140;2022-07-29T04:51:52;100550.98;;;11.86;68.48
64460;BME280;50828;53.756;21.140;2022-07-29T04:57:00;100551.83;;;12.27;69.05
64460;BME280;50828;53.756;21.140;2022-07-29T05:02:08;100551.98;;;12.71;69.31
64460;BME280;50828;53.756;21.140;2022-07-29T05:07:16;100555.84;;;13.17;69.52
64460;BME280;50828;53.756;21.140;2022-07-29T05:12:25;100558.90;;;13.64;69.91
64460;BME280;50828;53.756;21.140;2022-07-29T05:17:34;100558.88;;;14.11;69.79
64460;BME280;50828;53.756;21.140;2022-07-29T05:22:42;100569.64;;;14.59;69.64
64460;BME280;50828;53.756;21.140;2022-07-29T05:27:51;100569.95;;;15.06;69.34
64460;BME280;50828;53.756;21.140;2022-07-29T05:32:59;100566.23;;;15.53;68.74
64460;BME280;50828;53.756;21.140;2022-07-29T05:38:07;100562.92;;;15.99;68.05
64460;BME280;50828;53.756;21.140;2022-07-29T05:43:15;100558.55;;;16.41;67.29
64460;BME280;50828;53.756;21.140;2022-07-29T05:48:24;100559.14;;;16.84;66.70
64460;BME280;50828;53.756;21.140;2022-07-29T05:53:32;100558.81;;;17.25;65.83
64460;BME280;50828;53.756;21.140;2022-07-29T05:58:40;100558.13;;;17.65;64.83
64460;BME280;50828;53.756;21.140;2022-07-29T06:03:48;100557.50;;;18.03;64.02
64460;BME280;50828;53.756;21.140;2022-07-29T06:08:57;100561.71;;;18.38;62.83
64460;BME280;50828;53.756;21.140;2022-07-29T06:14:18;100566.54;;;18.67;61.56
64460;BME280;50828;53.756;21.140;2022-07-29T06:19:26;100567.14;;;18.88;60.71
64460;BME280;50828;53.756;21.140;2022-07-29T06:24:35;100569.42;;;19.02;59.99
64460;BME280;50828;53.756;21.140;2022-07-29T06:29:48;100572.42;;;19.10;59.22
64460;BME280;50828;53.756;21.140;2022-07-29T06:34:56;100569.92;;;19.15;58.65
64460;BME280;50828;53.756;21.140;2022-07-29T06:40:24;100567.92;;;19.18;57.97
64460;BME280;50828;53.756;21.140;2022-07-29T06:45:50;100563.20;;;19.22;57.53
64460;BME280;50828;53.756;21.140;2022-07-29T06:50:59;100555.19;;;19.30;57.67
64460;BME280;50828;53.756;21.140;2022-07-29T06:56:08;100552.80;;;19.41;57.20
64460;BME280;50828;53.756;21.140;2022-07-29T07:01:19;100549.27;;;19.50;56.71
64460;BME280;50828;53.756;21.140;2022-07-29T07:06:28;100544.77;;;19.56;56.03
64460;BME280;50828;53.756;21.140;2022-07-29T07:11:36;100548.40;;;19.60;55.61
64460;BME280;50828;53.756;21.140;2022-07-29T07:16:44;100546.08;;;19.62;55.27
64460;BME280;50828;53.756;21.140;2022-07-29T07:21:52;100544.36;;;19.64;54.73
64460;BME280;50828;53.756;21.140;2022-07-29T07:27:00;100546.03;;;19.66;54.53
64460;BME280;50828;53.756;21.140;2022-07-29T07:32:09;100547.19;;;19.70;54.29
64460;BME280;50828;53.756;21.140;2022-07-29T07:37:20;100540.87;;;19.78;53.89
64460;BME280;50828;53.756;21.140;2022-07-29T07:42:28;100537.72;;;19.92;53.80
64460;BME280;50828;53.756;21.140;2022-07-29T07:47:37;100536.32;;;20.12;53.72
64460;BME280;50828;53.756;21.140;2022-07-29T07:52:54;100542.59;;;20.36;53.61
64460;BME280;50828;53.756;21.140;2022-07-29T07:58:04;100541.94;;;20.61;52.95
64460;BME280;50828;53.756;21.140;2022-07-29T08:03:13;100540.87;;;20.81;52.34
64460;BME280;50828;53.756;21.140;2022-07-29T08:08:23;100545.44;;;20.94;51.42
64460;BME280;50828;53.756;21.140;2022-07-29T08:13:31;100544.40;;;21.02;50.78
64460;BME280;50828;53.756;21.140;2022-07-29T08:18:41;100547.98;;;21.09;50.45
64460;BME280;50828;53.756;21.140;2022-07-29T08:23:50;100553.27;;;21.15;50.47
64460;BME280;50828;53.756;21.140;2022-07-29T08:29:06;100554.96;;;21.16;50.05
64460;BME280;50828;53.756;21.140;2022-07-29T08:34:14;100557.77;;;21.15;49.55
64460;BME280;50828;53.756;21.140;2022-07-29T08:39:23;100564.53;;;21.11;49.32
64460;BME280;50828;53.756;21.140;2022-07-29T08:44:33;100560.35;;;21.04;49.19
64460;BME280;50828;53.756;21.140;2022-07-29T08:49:42;100565.23;;;20.99;49.17
64460;BME280;50828;53.756;21.140;2022-07-29T08:54:52;100562.01;;;20.95;49.07
64460;BME280;50828;53.756;21.140;2022-07-29T09:00:02;100554.80;;;20.93;48.90
64460;BME280;50828;53.756;21.140;2022-07-29T09:05:17;100551.00;;;20.91;48.45
64460;BME280;50828;53.756;21.140;2022-07-29T09:10:26;100540.67;;;20.83;48.43
64460;BME280;50828;53.756;21.140;2022-07-29T09:15:34;100549.63;;;20.90;48.19
64460;BME280;50828;53.756;21.140;2022-07-29T09:20:53;100545.10;;;20.93;48.53
64460;BME280;50828;53.756;21.140;2022-07-29T09:26:20;100546.11;;;20.96;48.89
64460;BME280;50828;53.756;21.140;2022-07-29T09:31:38;100547.05;;;21.03;48.67
64460;BME280;50828;53.756;21.140;2022-07-29T09:36:48;100542.94;;;21.07;48.34
64460;BME280;50828;53.756;21.140;2022-07-29T09:42:00;100538.98;;;21.12;48.31
64460;BME280;50828;53.756;21.140;2022-07-29T09:47:09;100529.77;;;21.18;47.98
64460;BME280;50828;53.756;21.140;2022-07-29T09:52:17;100534.45;;;21.22;47.86
64460;BME280;50828;53.756;21.140;2022-07-29T09:57:26;100532.89;;;21.24;47.26
64460;BME280;50828;53.756;21.140;2022-07-29T10:02:37;100530.17;;;21.24;47.29
64460;BME280;50828;53.756;21.140;2022-07-29T10:07:50;100533.04;;;21.27;47.45
64460;BME280;50828;53.756;21.140;2022-07-29T10:13:05;100522.77;;;21.32;47.24
64460;BME280;50828;53.756;21.140;2022-07-29T10:18:20;100522.04;;;21.39;47.00
64460;BME280;50828;53.756;21.140;2022-07-29T10:23:30;100523.88;;;21.47;47.10
64460;BME280;50828;53.756;21.140;2022-07-29T10:28:53;100522.80;;;21.57;46.57
64460;BME280;50828;53.756;21.140;2022-07-29T10:34:07;100524.39;;;21.66;46.43
64460;BME280;50828;53.756;21.140;2022-07-29T10:39:39;100522.52;;;21.74;45.90
64460;BME280;50828;53.756;21.140;2022-07-29T10:44:55;100516.98;;;21.80;45.94
64460;BME280;50828;53.756;21.140;2022-07-29T10:50:06;100513.87;;;21.88;46.07
64460;BME280;50828;53.756;21.140;2022-07-29T10:55:35;100513.24;;;21.93;45.92
64460;BME280;50828;53.756;21.140;2022-07-29T11:00:50;100514.14;;;21.97;45.38
64460;BME280;50828;53.756;21.140;2022-07-29T11:05:59;100516.30;;;21.99;45.34
64460;BME280;50828;53.756;21.140;2022-07-29T11:11:37;100508.41;;;21.99;44.78
64460;BME280;50828;53.756;21.140;2022-07-29T11:17:04;100501.78;;;21.99;43.95
64460;BME280;50828;53.756;21.140;2022-07-29T11:22:14;100494.89;;;22.00;43.82
64460;BME280;50828;53.756;21.140;2022-07-29T11:27:41;100491.90;;;22.04;43.57
64460;BME280;50828;53.756;21.140;2022-07-29T11:32:51;100495.55;;;22.10;43.87
64460;BME280;50828;53.756;21.140;2022-07-29T11:38:25;100491.36;;;22.15;43.43
64460;BME280;50828;53.756;21.140;2022-07-29T11:43:50;100495.21;;;22.21;43.20
64460;BME280;50828;53.756;21.140;2022-07-29T11:48:59;100491.61;;;22.27;43.05
64460;BME280;50828;53.756;21.140;2022-07-29T11:54:16;100487.40;;;22.33;42.72
64460;BME280;50828;53.756;21.140;2022-07-29T11:59:33;100486.39;;;22.39;42.67
64460;BME280;50828;53.756;21.140;2022-07-29T12:04:55;100484.27;;;22.45;42.26
64460;BME280;50828;53.756;21.140;2022-07-29T12:10:05;100477.19;;;22.48;41.55
64460;BME280;50828;53.756;21.140;2022-07-29T12:15:26;100468.11;;;22.51;41.57
64460;BME280;50828;53.756;21.140;2022-07-29T12:21:01;100462.89;;;22.58;41.55
64460;BME280;50828;53.756;21.140;2022-07-29T12:26:10;100465.96;;;22.64;41.48
64460;BME280;50828;53.756;21.140;2022-07-29T12:31:31;100462.74;;;22.70;41.19
64460;BME280;50828;53.756;21.140;2022-07-29T12:36:49;100454.96;;;22.75;41.02
64460;BME280;50828;53.756;21.140;2022-07-29T12:41:58;100449.53;;;22.80;40.97
64460;BME280;50828;53.756;21.140;2022-07-29T12:47:10;100444.09;;;22.84;40.69
64460;BME280;50828;53.756;21.140;2022-07-29T12:52:31;100437.94;;;22.89;40.47
64460;BME280;50828;53.756;21.140;2022-07-29T12:57:49;100433.90;;;22.92;39.88
64460;BME280;50828;53.756;21.140;2022-07-29T13:02:59;100434.05;;;22.93;39.36
64460;BME280;50828;53.756;21.140;2022-07-29T13:08:17;100431.67;;;22.93;38.94
64460;BME280;50828;53.756;21.140;2022-07-29T13:13:42;100431.64;;;22.94;38.75
64460;BME280;50828;53.756;21.140;2022-07-29T13:19:13;100438.55;;;22.97;38.75
64460;BME280;50828;53.756;21.140;2022-07-29T13:24:21;100439.50;;;23.00;39.22
64460;BME280;50828;53.756;21.140;2022-07-29T13:29:29;100442.21;;;23.02;39.04
64460;BME280;50828;53.756;21.140;2022-07-29T13:34:38;100437.50;;;23.01;38.82
64460;BME280;50828;53.756;21.140;2022-07-29T13:39:47;100432.55;;;22.98;38.70
64460;BME280;50828;53.756;21.140;2022-07-29T13:44:58;100429.23;;;22.94;38.61
64460;BME280;50828;53.756;21.140;2022-07-29T13:50:09;100424.11;;;22.91;38.65
64460;BME280;50828;53.756;21.140;2022-07-29T13:55:17;100419.82;;;22.89;38.92
64460;BME280;50828;53.756;21.140;2022-07-29T14:00:26;100421.86;;;22.88;38.95
64460;BME280;50828;53.756;21.140;2022-07-29T14:05:34;100416.50;;;22.88;38.96
64460;BME280;50828;53.756;21.140;2022-07-29T14:10:44;100421.13;;;22.88;39.09
64460;BME280;50828;53.756;21.140;2022-07-29T14:15:52;100425.92;;;22.89;39.15
64460;BME280;50828;53.756;21.140;2022-07-29T14:21:01;100419.82;;;22.89;39.05
64460;BME280;50828;53.756;21.140;2022-07-29T14:26:10;100413.73;;;22.88;38.91
64460;BME280;50828;53.756;21.140;2022-07-29T14:31:44;100408.34;;;22.89;38.89
64460;BME280;50828;53.756;21.140;2022-07-29T14:36:53;100406.94;;;22.90;39.10
64460;BME280;50828;53.756;21.140;2022-07-29T14:42:02;100405.59;;;22.94;39.28
64460;BME280;50828;53.756;21.140;2022-07-29T14:47:10;100403.38;;;22.96;39.23
64460;BME280;50828;53.756;21.140;2022-07-29T14:52:19;100381.96;;;22.89;38.82
64460;BME280;50828;53.756;21.140;2022-07-29T14:57:28;100396.71;;;23.01;39.04
64460;BME280;50828;53.756;21.140;2022-07-29T15:02:36;100384.48;;;22.93;39.02
64460;BME280;50828;53.756;21.140;2022-07-29T15:08:05;100396.88;;;23.05;38.62
64460;BME280;50828;53.756;21.140;2022-07-29T15:13:15;100400.17;;;23.06;38.80
64460;BME280;50828;53.756;21.140;2022-07-29T15:18:24;100395.05;;;23.07;38.74
64460;BME280;50828;53.756;21.140;2022-07-29T15:23:32;100397.98;;;23.07;38.57
64460;BME280;50828;53.756;21.140;2022-07-29T15:28:42;100390.44;;;23.07;38.41
64460;BME280;50828;53.756;21.140;2022-07-29T15:33:50;100396.44;;;23.06;38.59
64460;BME280;50828;53.756;21.140;2022-07-29T15:39:05;100390.81;;;23.04;38.35
64460;BME280;50828;53.756;21.140;2022-07-29T15:44:13;100388.37;;;23.03;38.62
64460;BME280;50828;53.756;21.140;2022-07-29T15:49:22;100380.55;;;23.01;38.63
64460;BME280;50828;53.756;21.140;2022-07-29T15:54:56;100379.70;;;23.00;38.71
64460;BME280;50828;53.756;21.140;2022-07-29T16:00:05;100377.16;;;22.99;38.66
64460;BME280;50828;53.756;21.140;2022-07-29T16:05:14;100369.88;;;22.96;38.71
64460;BME280;50828;53.756;21.140;2022-07-29T16:10:23;100365.08;;;22.90;38.81
64460;BME280;50828;53.756;21.140;2022-07-29T16:15:31;100360.77;;;22.85;38.81
64460;BME280;50828;53.756;21.140;2022-07-29T16:20:40;100367.19;;;22.79;38.80
64460;BME280;50828;53.756;21.140;2022-07-29T16:25:49;100371.70;;;22.72;38.69
64460;BME280;50828;53.756;21.140;2022-07-29T16:31:08;100369.06;;;22.66;38.88
64460;BME280;50828;53.756;21.140;2022-07-29T16:36:17;100369.89;;;22.58;38.98
64460;BME280;50828;53.756;21.140;2022-07-29T16:41:26;100366.88;;;22.49;39.02
64460;BME280;50828;53.756;21.140;2022-07-29T16:46:35;100366.69;;;22.41;39.03
64460;BME280;50828;53.756;21.140;2022-07-29T16:51:45;100364.34;;;22.35;39.08
64460;BME280;50828;53.756;21.140;2022-07-29T16:56:55;100363.34;;;22.28;39.07
64460;BME280;50828;53.756;21.140;2022-07-29T17:02:06;100359.88;;;22.20;39.13
64460;BME280;50828;53.756;21.140;2022-07-29T17:07:16;100356.05;;;22.12;39.10
64460;BME280;50828;53.756;21.140;2022-07-29T17:12:24;100354.97;;;22.04;39.08
64460;BME280;50828;53.756;21.140;2022-07-29T17:17:33;100352.54;;;21.96;39.17
64460;BME280;50828;53.756;21.140;2022-07-29T17:22:44;100348.23;;;21.88;39.32
64460;BME280;50828;53.756;21.140;2022-07-29T17:27:52;100354.05;;;21.80;39.41
64460;BME280;50828;53.756;21.140;2022-07-29T17:33:06;100353.60;;;21.72;39.63
64460;BME280;50828;53.756;21.140;2022-07-29T17:38:14;100354.39;;;21.65;39.52
64460;BME280;50828;53.756;21.140;2022-07-29T17:43:23;100356.45;;;21.58;39.71
64460;BME280;50828;53.756;21.140;2022-07-29T17:48:32;100351.91;;;21.50;39.63
64460;BME280;50828;53.756;21.140;2022-07-29T17:53:40;100354.27;;;21.42;39.75
64460;BME280;50828;53.756;21.140;2022-07-29T17:58:49;100358.69;;;21.34;39.93
64460;BME280;50828;53.756;21.140;2022-07-29T18:03:57;100360.58;;;21.26;40.17
64460;BME280;50828;53.756;21.140;2022-07-29T18:09:05;100360.44;;;21.17;40.42
64460;BME280;50828;53.756;21.140;2022-07-29T18:14:13;100362.67;;;21.07;40.67
64460;BME280;50828;53.756;21.140;2022-07-29T18:19:22;100368.82;;;20.97;41.08
64460;BME280;50828;53.756;21.140;2022-07-29T18:24:30;100372.07;;;20.86;41.53
64460;BME280;50828;53.756;21.140;2022-07-29T18:29:39;100376.02;;;20.72;42.14
64460;BME280;50828;53.756;21.140;2022-07-29T18:34:47;100373.32;;;20.56;42.47
64460;BME280;50828;53.756;21.140;2022-07-29T18:39:55;100375.23;;;20.38;42.81
64460;BME280;50828;53.756;21.140;2022-07-29T18:45:05;100379.05;;;20.18;43.11
64460;BME280;50828;53.756;21.140;2022-07-29T18:50:26;100385.83;;;19.97;43.56
64460;BME280;50828;53.756;21.140;2022-07-29T18:55:35;100380.80;;;19.71;43.73
64460;BME280;50828;53.756;21.140;2022-07-29T19:00:43;100394.38;;;19.53;43.83
64460;BME280;50828;53.756;21.140;2022-07-29T19:05:52;100395.90;;;19.30;43.99
64460;BME280;50828;53.756;21.140;2022-07-29T19:11:01;100394.27;;;19.08;44.55
64460;BME280;50828;53.756;21.140;2022-07-29T19:16:09;100395.62;;;18.83;44.93
64460;BME280;50828;53.756;21.140;2022-07-29T19:21:19;100401.95;;;18.61;45.39
64460;BME280;50828;53.756;21.140;2022-07-29T19:26:27;100402.58;;;18.39;45.74
64460;BME280;50828;53.756;21.140;2022-07-29T19:31:36;100401.68;;;18.18;46.26
64460;BME280;50828;53.756;21.140;2022-07-29T19:36:46;100399.15;;;17.97;46.58
64460;BME280;50828;53.756;21.140;2022-07-29T19:41:55;100403.26;;;17.78;46.89
64460;BME280;50828;53.756;21.140;2022-07-29T19:47:08;100402.73;;;17.58;47.32
64460;BME280;50828;53.756;21.140;2022-07-29T19:52:24;100399.11;;;17.40;47.93
64460;BME280;50828;53.756;21.140;2022-07-29T19:57:33;100398.06;;;17.23;48.34
64460;BME280;50828;53.756;21.140;2022-07-29T20:02:48;100401.01;;;17.07;48.55
64460;BME280;50828;53.756;21.140;2022-07-29T20:07:57;100401.80;;;16.94;48.83
64460;BME280;50828;53.756;21.140;2022-07-29T20:13:06;100405.94;;;16.85;49.11
64460;BME280;50828;53.756;21.140;2022-07-29T20:18:14;100402.89;;;16.79;49.54
64460;BME280;50828;53.756;21.140;2022-07-29T20:23:24;100402.05;;;16.76;49.90
64460;BME280;50828;53.756;21.140;2022-07-29T20:28:39;100378.79;;;16.63;49.99
64460;BME280;50828;53.756;21.140;2022-07-29T20:33:53;100401.45;;;16.74;50.02
64460;BME280;50828;53.756;21.140;2022-07-29T20:39:02;100400.34;;;16.74;50.40
64460;BME280;50828;53.756;21.140;2022-07-29T20:44:11;100404.25;;;16.74;50.38
64460;BME280;50828;53.756;21.140;2022-07-29T20:49:20;100401.73;;;16.75;50.87
64460;BME280;50828;53.756;21.140;2022-07-29T20:54:29;100404.38;;;16.75;51.00
64460;BME280;50828;53.756;21.140;2022-07-29T20:59:37;100398.76;;;16.74;50.98
64460;BME280;50828;53.756;21.140;2022-07-29T21:04:52;100401.33;;;16.73;51.15
64460;BME280;50828;53.756;21.140;2022-07-29T21:10:00;100401.77;;;16.71;51.23
64460;BME280;50828;53.756;21.140;2022-07-29T21:15:09;100398.48;;;16.69;51.50
64460;BME280;50828;53.756;21.140;2022-07-29T21:20:20;100391.88;;;16.67;51.78
64460;BME280;50828;53.756;21.140;2022-07-29T21:25:29;100388.75;;;16.66;51.94
64460;BME280;50828;53.756;21.140;2022-07-29T21:30:40;100391.69;;;16.64;51.91
64460;BME280;50828;53.756;21.140;2022-07-29T21:35:49;100389.64;;;16.63;52.02
64460;BME280;50828;53.756;21.140;2022-07-29T21:41:17;100388.17;;;16.61;52.39
64460;BME280;50828;53.756;21.140;2022-07-29T21:46:26;100379.56;;;16.56;52.71
64460;BME280;50828;53.756;21.140;2022-07-29T21:51:35;100383.25;;;16.54;52.62
64460;BME280;50828;53.756;21.140;2022-07-29T21:56:43;100378.33;;;16.50;52.66
64460;BME280;50828;53.756;21.140;2022-07-29T22:01:57;100382.05;;;16.47;53.18
64460;BME280;50828;53.756;21.140;2022-07-29T22:07:06;100381.17;;;16.44;53.29
64460;BME280;50828;53.756;21.140;2022-07-29T22:12:14;100380.55;;;16.40;53.54
64460;BME280;50828;53.756;21.140;2022-07-29T22:17:23;100375.06;;;16.36;53.58
64460;BME280;50828;53.756;21.140;2022-07-29T22:22:31;100376.98;;;16.31;53.87
64460;BME280;50828;53.756;21.140;2022-07-29T22:27:39;100375.85;;;16.26;54.26
64460;BME280;50828;53.756;21.140;2022-07-29T22:32:48;100370.08;;;16.22;54.21
64460;BME280;50828;53.756;21.140;2022-07-29T22:37:56;100370.52;;;16.18;54.49
64460;BME280;50828;53.756;21.140;2022-07-29T22:43:04;100370.02;;;16.14;54.72
64460;BME280;50828;53.756;21.140;2022-07-29T22:48:12;100375.06;;;16.10;54.77
64460;BME280;50828;53.756;21.140;2022-07-29T22:53:20;100373.66;;;16.04;54.82
64460;BME280;50828;53.756;21.140;2022-07-29T22:58:29;100378.72;;;15.96;54.90
64460;BME280;50828;53.756;21.140;2022-07-29T23:03:36;100374.96;;;15.87;54.82
64460;BME280;50828;53.756;21.140;2022-07-29T23:08:44;100369.58;;;15.78;55.23
64460;BME280;50828;53.756;21.140;2022-07-29T23:13:52;100365.75;;;15.71;55.18
64460;BME280;50828;53.756;21.140;2022-07-29T23:19:00;100365.41;;;15.61;55.16
64460;BME280;50828;53.756;21.140;2022-07-29T23:24:09;100360.70;;;15.50;55.41
64460;BME280;50828;53.756;21.140;2022-07-29T23:29:16;100359.38;;;15.39;55.66
64460;BME280;50828;53.756;21.140;2022-07-29T23:34:24;100356.89;;;15.30;55.72
64460;BME280;50828;53.756;21.140;2022-07-29T23:39:33;100352.30;;;15.19;56.16
64460;BME280;50828;53.756;21.140;2022-07-29T23:44:41;100349.44;;;15.10;56.41
64460;BME280;50828;53.756;21.140;2022-07-29T23:49:49;100345.16;;;15.01;56.43
64460;BME280;50828;53.756;21.140;2022-07-29T23:54:58;100348.34;;;14.92;56.46
